MMTJ/TIJ METAR and TAF weather

Enter ICAO airport designator
Station Type Date Time Source
MMTJ METAR 2019/04/20 21:40 UTC NOAA

MMTJ 202140Z 29004KT 10SM SKC 18/10 A3002 RMK HZY ISOL CU


Station Type Date Time Source
MMTJ Decoded METAR 2019/04/20 21:40 UTC NOAA

Tijuana International Airport , Mexico (MMTJ) 32-33N 116-58W
Apr 20, 2019 - 05:40 PM EDT / 2019.04.20 2140 UTC
Wind: from the WNW (290 degrees) at 5 MPH (4 KT):0
Visibility: 10 mile(s):0
Sky conditions: clear
Temperature: 64 F (18 C)
Dew Point: 50 F (10 C)
Relative Humidity: 59%
Pressure (altimeter): 30.02 in. Hg (1016 hPa)
ob: MMTJ 202140Z 29004KT 10SM SKC 18/10 A3002 RMK HZY ISOL CU
cycle: 21

Station Type Date Time Source
MMTJ TAF 2019/04/20 18:57 UTC NOAA

TAF COR MMTJ 201750Z 2018/2124 26010KT P6SM SCT020 TX23/2021Z TN14/2112Z
BECMG 2102/2103 00000KT
FM210900 00000KT 3SM BR OVC006
TEMPO 2112/2115 1SM BR OVC004
FM211700 24010KT 4SM HZ BKN015

Example: see airport list